Flight Sim Network - SBKP Airport Info

    SBKP (Viracopos International Airport)  Login to use Map Selector
   

  RUNWAY INFORMATION    |    Airport Elevation : 2170ft    |    LAT : -23.0074005127  /  LON : -47.1344985962
Runway Number 15 / 33 Runway Width 148' Runway Length 10630'
Lighted Runway No Runway StatusOpen Runway Surface Asphalt
  CLOSE ALTERNATE AIRPORTS
ICAODistanceAirport NameLongest RWRW SurfaceMAP
SDAM9NMAmarais Airport3937FTAsphalt
SDJD15NMJundiai5906FTAsphalt
SDAI17NMAmericana Airport3609FTGrass
SDPW32NMPiracicaba Airport3937FTAsphalt
SDBP33NMAeroporto Estadual Arthur Siqueira Airport3937FTAsphalt
SDCO34NMSorocaba Airport4856FTAsphalt
SDMJ38NMMogi Mirim Airport4921FTGrass
SBMT41NMMarte6237FTAsphalt
SDRK42NMRio Claro Airport3609FTGrass
SDAA42NMAraras Airport3775FTAsphalt
  AIRPORT WEATHER
80°F | 27°C
Temperature
28%
Humidity
30" | 0mb
Pressure
6sm
Visibility
VFR
Flight Rules
CAVOK
Initial Clouds
FAIR
Conditions
Wind Info
7/23/24 18:00Z
Updated

SBKP 231800Z 15007KT CAVOK 27/07 Q1024
  AIRPORT FREQUENCIES
NameFrequency
ATIS127.820
GROUND121.900
TOWER118.250
APPROACH121.400
DEPARTURE121.400
IKP (RWY 15)110.300

Powered by Virtual Airlines Manager